Lime City, Iowa
Current Conditions -  °F | °C
As of 9:15 AM on Monday 24 Nov 2014 (Local Time) from KMUT Reporting Station
Overcast Overcast  
Wind Chill: 18°   Ceiling: 1700
Heat Index: 32°   Visibility: 9mi
Dew Point: 27°   Wind: 28mph
Humidity: 80%   Direction: 280°W
Pressure: 29.44"   Gusts: 37mph
Location:  41.5598°N, 90.9701°W
Report Text: KMUT 241515Z AUTO 28024G32KT 9SM BKN017 OVC024 M00/M03 A2944 RMK AO2
Loading
Personal Weather Stations






























Interactive Weather Map New forecast layout! Learn more

10-Day Weather Forecast

Advertisements
Track Severe Weather on mobile